sensor_id;sensor_type;location;lat;lon;timestamp;pressure;altitude;pressure_sealevel;temperature;humidity
35151;BME280;55720;51.972;4.624;2022-12-10T00:00:48;101137.44;;;-0.45;100.00
35151;BME280;55720;51.972;4.624;2022-12-10T00:03:13;101140.72;;;-0.43;100.00
35151;BME280;55720;51.972;4.624;2022-12-10T00:05:39;101149.03;;;-0.45;100.00
35151;BME280;55720;51.972;4.624;2022-12-10T00:08:04;101138.00;;;-0.43;100.00
35151;BME280;55720;51.972;4.624;2022-12-10T00:10:29;101140.72;;;-0.43;100.00
35151;BME280;55720;51.972;4.624;2022-12-10T00:12:55;101137.13;;;-0.49;100.00
35151;BME280;55720;51.972;4.624;2022-12-10T00:15:20;101133.06;;;-0.52;100.00
35151;BME280;55720;51.972;4.624;2022-12-10T00:17:45;101142.72;;;-0.56;100.00
35151;BME280;55720;51.972;4.624;2022-12-10T00:20:11;101133.19;;;-0.63;100.00
35151;BME280;55720;51.972;4.624;2022-12-10T00:22:36;101137.94;;;-0.70;100.00
35151;BME280;55720;51.972;4.624;2022-12-10T00:25:01;101143.34;;;-0.70;100.00
35151;BME280;55720;51.972;4.624;2022-12-10T00:27:27;101141.97;;;-0.73;100.00
35151;BME280;55720;51.972;4.624;2022-12-10T00:29:52;101147.34;;;-0.73;100.00
35151;BME280;55720;51.972;4.624;2022-12-10T00:32:18;101144.97;;;-0.69;100.00
35151;BME280;55720;51.972;4.624;2022-12-10T00:34:43;101144.78;;;-0.63;100.00
35151;BME280;55720;51.972;4.624;2022-12-10T00:37:09;101148.28;;;-0.62;100.00
35151;BME280;55720;51.972;4.624;2022-12-10T00:39:34;101148.84;;;-0.60;100.00
35151;BME280;55720;51.972;4.624;2022-12-10T00:41:59;101156.13;;;-0.61;100.00
35151;BME280;55720;51.972;4.624;2022-12-10T00:44:25;101159.25;;;-0.69;100.00
35151;BME280;55720;51.972;4.624;2022-12-10T00:46:50;101165.41;;;-0.73;100.00
35151;BME280;55720;51.972;4.624;2022-12-10T00:49:15;101167.59;;;-0.70;100.00
35151;BME280;55720;51.972;4.624;2022-12-10T00:51:41;101170.03;;;-0.69;100.00
35151;BME280;55720;51.972;4.624;2022-12-10T00:54:07;101163.84;;;-0.69;100.00
35151;BME280;55720;51.972;4.624;2022-12-10T00:56:33;101174.03;;;-0.71;100.00
35151;BME280;55720;51.972;4.624;2022-12-10T00:58:59;101172.41;;;-0.72;100.00
35151;BME280;55720;51.972;4.624;2022-12-10T01:01:35;101166.78;;;-0.71;100.00
35151;BME280;55720;51.972;4.624;2022-12-10T01:04:07;101167.78;;;-0.77;100.00
35151;BME280;55720;51.972;4.624;2022-12-10T01:06:36;101184.47;;;-0.80;100.00
35151;BME280;55720;51.972;4.624;2022-12-10T01:09:06;101181.19;;;-0.82;100.00
35151;BME280;55720;51.972;4.624;2022-12-10T01:11:34;101180.63;;;-0.84;100.00
35151;BME280;55720;51.972;4.624;2022-12-10T01:14:00;101194.94;;;-0.83;100.00
35151;BME280;55720;51.972;4.624;2022-12-10T01:16:26;101202.56;;;-0.75;100.00
35151;BME280;55720;51.972;4.624;2022-12-10T01:18:56;101189.25;;;-0.65;100.00
35151;BME280;55720;51.972;4.624;2022-12-10T01:21:22;101190.13;;;-0.60;100.00
35151;BME280;55720;51.972;4.624;2022-12-10T01:23:49;101179.66;;;-0.56;100.00
35151;BME280;55720;51.972;4.624;2022-12-10T01:26:18;101183.78;;;-0.48;100.00
35151;BME280;55720;51.972;4.624;2022-12-10T01:28:44;101179.97;;;-0.53;100.00
35151;BME280;55720;51.972;4.624;2022-12-10T01:31:24;101184.50;;;-0.36;100.00
35151;BME280;55720;51.972;4.624;2022-12-10T01:33:50;101191.56;;;-0.30;100.00
35151;BME280;55720;51.972;4.624;2022-12-10T01:36:21;101183.84;;;-0.22;100.00
35151;BME280;55720;51.972;4.624;2022-12-10T01:38:47;101185.16;;;-0.24;100.00
35151;BME280;55720;51.972;4.624;2022-12-10T01:41:18;101189.78;;;-0.20;100.00
35151;BME280;55720;51.972;4.624;2022-12-10T01:43:58;101184.09;;;-0.23;100.00
35151;BME280;55720;51.972;4.624;2022-12-10T01:46:27;101188.88;;;-0.30;100.00
35151;BME280;55720;51.972;4.624;2022-12-10T01:48:53;101197.34;;;-0.22;100.00
35151;BME280;55720;51.972;4.624;2022-12-10T01:51:20;101206.00;;;-0.20;100.00
35151;BME280;55720;51.972;4.624;2022-12-10T01:53:46;101211.31;;;-0.25;100.00
35151;BME280;55720;51.972;4.624;2022-12-10T01:56:12;101197.59;;;-0.23;100.00
35151;BME280;55720;51.972;4.624;2022-12-10T01:58:40;101194.50;;;-0.32;100.00
35151;BME280;55720;51.972;4.624;2022-12-10T02:01:28;101184.41;;;-0.20;100.00
35151;BME280;55720;51.972;4.624;2022-12-10T02:04:21;101203.06;;;-0.18;100.00
35151;BME280;55720;51.972;4.624;2022-12-10T02:07:17;101212.19;;;-0.19;100.00
35151;BME280;55720;51.972;4.624;2022-12-10T02:09:54;101208.69;;;-0.20;100.00
35151;BME280;55720;51.972;4.624;2022-12-10T02:12:37;101206.69;;;-0.29;100.00
35151;BME280;55720;51.972;4.624;2022-12-10T02:15:13;101205.09;;;-0.25;100.00
35151;BME280;55720;51.972;4.624;2022-12-10T02:17:45;101207.56;;;-0.24;100.00
35151;BME280;55720;51.972;4.624;2022-12-10T02:23:00;101194.25;;;-0.30;100.00
35151;BME280;55720;51.972;4.624;2022-12-10T02:25:58;101218.16;;;-0.17;100.00
35151;BME280;55720;51.972;4.624;2022-12-10T02:31:29;101208.13;;;-0.22;100.00
35151;BME280;55720;51.972;4.624;2022-12-10T02:33:59;101205.59;;;-0.28;100.00
35151;BME280;55720;51.972;4.624;2022-12-10T02:36:28;101214.78;;;-0.29;100.00
35151;BME280;55720;51.972;4.624;2022-12-10T02:38:56;101207.06;;;-0.42;100.00
35151;BME280;55720;51.972;4.624;2022-12-10T02:41:27;101201.22;;;-0.34;100.00
35151;BME280;55720;51.972;4.624;2022-12-10T02:43:55;101199.28;;;-0.39;100.00
35151;BME280;55720;51.972;4.624;2022-12-10T02:46:22;101195.72;;;-0.44;100.00
35151;BME280;55720;51.972;4.624;2022-12-10T02:48:50;101196.25;;;-0.42;100.00
35151;BME280;55720;51.972;4.624;2022-12-10T02:51:16;101199.78;;;-0.42;100.00
35151;BME280;55720;51.972;4.624;2022-12-10T02:53:43;101199.53;;;-0.40;100.00
35151;BME280;55720;51.972;4.624;2022-12-10T02:56:25;101197.47;;;-0.33;100.00
35151;BME280;55720;51.972;4.624;2022-12-10T03:06:41;101190.13;;;-0.38;100.00
35151;BME280;55720;51.972;4.624;2022-12-10T03:09:16;101184.81;;;-0.33;100.00
35151;BME280;55720;51.972;4.624;2022-12-10T03:11:43;101186.78;;;-0.45;100.00
35151;BME280;55720;51.972;4.624;2022-12-10T03:14:14;101184.34;;;-0.46;100.00
35151;BME280;55720;51.972;4.624;2022-12-10T03:16:49;101181.09;;;-0.48;100.00
35151;BME280;55720;51.972;4.624;2022-12-10T03:19:17;101173.88;;;-0.43;100.00
35151;BME280;55720;51.972;4.624;2022-12-10T03:21:45;101172.59;;;-0.35;100.00
35151;BME280;55720;51.972;4.624;2022-12-10T03:24:11;101167.91;;;-0.45;100.00
35151;BME280;55720;51.972;4.624;2022-12-10T03:26:39;101173.63;;;-0.41;100.00
35151;BME280;55720;51.972;4.624;2022-12-10T03:29:09;101175.38;;;-0.52;100.00
35151;BME280;55720;51.972;4.624;2022-12-10T03:31:37;101172.19;;;-0.49;100.00
35151;BME280;55720;51.972;4.624;2022-12-10T03:34:04;101166.53;;;-0.47;100.00
35151;BME280;55720;51.972;4.624;2022-12-10T03:36:31;101152.78;;;-0.46;100.00
35151;BME280;55720;51.972;4.624;2022-12-10T03:38:57;101154.31;;;-0.55;100.00
35151;BME280;55720;51.972;4.624;2022-12-10T03:41:23;101157.31;;;-0.52;100.00
35151;BME280;55720;51.972;4.624;2022-12-10T03:43:50;101148.22;;;-0.45;100.00
35151;BME280;55720;51.972;4.624;2022-12-10T03:46:15;101154.22;;;-0.38;100.00
35151;BME280;55720;51.972;4.624;2022-12-10T03:48:41;101155.34;;;-0.34;100.00
35151;BME280;55720;51.972;4.624;2022-12-10T03:51:06;101158.59;;;-0.32;100.00
35151;BME280;55720;51.972;4.624;2022-12-10T03:53:31;101136.22;;;-0.33;100.00
35151;BME280;55720;51.972;4.624;2022-12-10T03:55:57;101147.34;;;-0.29;100.00
35151;BME280;55720;51.972;4.624;2022-12-10T03:58:22;101154.78;;;-0.15;100.00
35151;BME280;55720;51.972;4.624;2022-12-10T04:00:47;101155.44;;;-0.29;100.00
35151;BME280;55720;51.972;4.624;2022-12-10T04:03:13;101170.34;;;-0.22;100.00
35151;BME280;55720;51.972;4.624;2022-12-10T04:05:38;101168.28;;;-0.15;100.00
35151;BME280;55720;51.972;4.624;2022-12-10T04:08:04;101164.19;;;-0.17;100.00
35151;BME280;55720;51.972;4.624;2022-12-10T04:10:29;101175.56;;;-0.15;100.00
35151;BME280;55720;51.972;4.624;2022-12-10T04:12:54;101182.00;;;-0.16;100.00
35151;BME280;55720;51.972;4.624;2022-12-10T04:15:39;101175.47;;;-0.20;100.00
35151;BME280;55720;51.972;4.624;2022-12-10T04:18:23;101185.00;;;-0.13;100.00
35151;BME280;55720;51.972;4.624;2022-12-10T04:20:48;101179.94;;;-0.09;100.00
35151;BME280;55720;51.972;4.624;2022-12-10T04:23:32;101176.81;;;-0.23;100.00
35151;BME280;55720;51.972;4.624;2022-12-10T04:26:16;101184.16;;;-0.18;100.00
35151;BME280;55720;51.972;4.624;2022-12-10T04:29:00;101181.19;;;-0.17;100.00
35151;BME280;55720;51.972;4.624;2022-12-10T04:31:25;101185.53;;;-0.16;100.00
35151;BME280;55720;51.972;4.624;2022-12-10T04:33:51;101187.41;;;-0.16;100.00
35151;BME280;55720;51.972;4.624;2022-12-10T04:36:16;101186.59;;;-0.17;100.00
35151;BME280;55720;51.972;4.624;2022-12-10T04:38:41;101187.03;;;-0.25;100.00
35151;BME280;55720;51.972;4.624;2022-12-10T04:41:07;101189.88;;;-0.15;100.00
35151;BME280;55720;51.972;4.624;2022-12-10T04:43:41;101190.63;;;-0.19;100.00
35151;BME280;55720;51.972;4.624;2022-12-10T04:46:06;101185.84;;;-0.12;100.00
35151;BME280;55720;51.972;4.624;2022-12-10T04:48:32;101190.09;;;-0.16;100.00
35151;BME280;55720;51.972;4.624;2022-12-10T04:50:57;101189.03;;;-0.15;100.00
35151;BME280;55720;51.972;4.624;2022-12-10T04:53:22;101187.16;;;-0.15;100.00
35151;BME280;55720;51.972;4.624;2022-12-10T04:55:48;101191.44;;;-0.19;100.00
35151;BME280;55720;51.972;4.624;2022-12-10T04:58:13;101193.31;;;-0.19;100.00
35151;BME280;55720;51.972;4.624;2022-12-10T05:00:38;101192.56;;;-0.15;100.00
35151;BME280;55720;51.972;4.624;2022-12-10T05:03:04;101194.56;;;-0.27;100.00
35151;BME280;55720;51.972;4.624;2022-12-10T05:05:29;101193.69;;;-0.32;100.00
35151;BME280;55720;51.972;4.624;2022-12-10T05:07:54;101197.28;;;-0.27;100.00
35151;BME280;55720;51.972;4.624;2022-12-10T05:10:20;101199.53;;;-0.40;100.00
35151;BME280;55720;51.972;4.624;2022-12-10T05:12:45;101190.50;;;-0.29;100.00
35151;BME280;55720;51.972;4.624;2022-12-10T05:15:10;101192.50;;;-0.20;100.00
35151;BME280;55720;51.972;4.624;2022-12-10T05:17:36;101191.06;;;-0.27;100.00
35151;BME280;55720;51.972;4.624;2022-12-10T05:20:02;101197.34;;;-0.22;100.00
35151;BME280;55720;51.972;4.624;2022-12-10T05:22:27;101193.56;;;-0.21;100.00
35151;BME280;55720;51.972;4.624;2022-12-10T05:25:11;101188.97;;;-0.20;100.00
35151;BME280;55720;51.972;4.624;2022-12-10T05:27:36;101190.63;;;-0.19;100.00
35151;BME280;55720;51.972;4.624;2022-12-10T05:30:02;101189.28;;;-0.17;100.00
35151;BME280;55720;51.972;4.624;2022-12-10T05:32:27;101188.75;;;-0.19;100.00
35151;BME280;55720;51.972;4.624;2022-12-10T05:34:53;101190.63;;;-0.19;100.00
35151;BME280;55720;51.972;4.624;2022-12-10T05:37:18;101182.72;;;-0.26;100.00
35151;BME280;55720;51.972;4.624;2022-12-10T05:39:43;101193.44;;;-0.31;100.00
35151;BME280;55720;51.972;4.624;2022-12-10T05:42:09;101187.03;;;-0.25;100.00
35151;BME280;55720;51.972;4.624;2022-12-10T05:44:34;101190.63;;;-0.19;100.00
35151;BME280;55720;51.972;4.624;2022-12-10T05:46:59;101189.78;;;-0.20;100.00
35151;BME280;55720;51.972;4.624;2022-12-10T05:49:25;101189.50;;;-0.23;100.00
35151;BME280;55720;51.972;4.624;2022-12-10T05:51:50;101190.97;;;-0.11;100.00
35151;BME280;55720;51.972;4.624;2022-12-10T05:54:15;101196.44;;;-0.27;100.00
35151;BME280;55720;51.972;4.624;2022-12-10T05:56:41;101194.25;;;-0.30;100.00
35151;BME280;55720;51.972;4.624;2022-12-10T05:59:06;101197.78;;;-0.30;100.00
35151;BME280;55720;51.972;4.624;2022-12-10T06:01:33;101209.44;;;-0.24;100.00
35151;BME280;55720;51.972;4.624;2022-12-10T06:04:00;101194.06;;;-0.24;100.00
35151;BME280;55720;51.972;4.624;2022-12-10T06:06:29;101193.56;;;-0.21;100.00
35151;BME280;55720;51.972;4.624;2022-12-10T06:08:55;101189.25;;;-0.22;100.00
35151;BME280;55720;51.972;4.624;2022-12-10T06:11:21;101185.22;;;-0.19;100.00
35151;BME280;55720;51.972;4.624;2022-12-10T06:13:47;101175.66;;;-0.05;100.00
35151;BME280;55720;51.972;4.624;2022-12-10T06:16:13;101185.84;;;-0.12;100.00
35151;BME280;55720;51.972;4.624;2022-12-10T06:18:39;101190.19;;;-0.11;100.00
35151;BME280;55720;51.972;4.624;2022-12-10T06:21:09;101195.59;;;-0.06;100.00
35151;BME280;55720;51.972;4.624;2022-12-10T06:23:36;101199.56;;;-0.14;100.00
35151;BME280;55720;51.972;4.624;2022-12-10T06:26:15;101193.81;;;-0.22;100.00
35151;BME280;55720;51.972;4.624;2022-12-10T06:28:44;101204.53;;;-0.27;100.00
35151;BME280;55720;51.972;4.624;2022-12-10T06:31:10;101194.06;;;-0.24;100.00
35151;BME280;55720;51.972;4.624;2022-12-10T06:33:35;101201.91;;;-0.22;100.00
35151;BME280;55720;51.972;4.624;2022-12-10T06:36:04;101199.06;;;-0.11;100.00
35151;BME280;55720;51.972;4.624;2022-12-10T06:38:30;101189.66;;;-0.08;100.00
35151;BME280;55720;51.972;4.624;2022-12-10T06:40:56;101199.88;;;-0.10;100.00
35151;BME280;55720;51.972;4.624;2022-12-10T06:43:21;101192.97;;;-0.01;100.00
35151;BME280;55720;51.972;4.624;2022-12-10T06:45:46;101192.41;;;-0.03;100.00
35151;BME280;55720;51.972;4.624;2022-12-10T06:48:12;101202.66;;;-0.05;100.00
35151;BME280;55720;51.972;4.624;2022-12-10T06:50:37;101198.09;;;0.00;100.00
35151;BME280;55720;51.972;4.624;2022-12-10T06:53:03;101205.41;;;0.00;100.00
35151;BME280;55720;51.972;4.624;2022-12-10T06:55:28;101184.81;;;-0.06;100.00
35151;BME280;55720;51.972;4.624;2022-12-10T06:57:53;101167.47;;;-0.15;100.00
35151;BME280;55720;51.972;4.624;2022-12-10T07:00:20;101202.78;;;-0.17;100.00
35151;BME280;55720;51.972;4.624;2022-12-10T07:02:46;101214.16;;;-0.15;100.00
35151;BME280;55720;51.972;4.624;2022-12-10T07:05:11;101218.22;;;-0.12;100.00
35151;BME280;55720;51.972;4.624;2022-12-10T07:07:37;101218.03;;;-0.06;100.00
35151;BME280;55720;51.972;4.624;2022-12-10T07:10:04;101216.38;;;-0.07;100.00
35151;BME280;55720;51.972;4.624;2022-12-10T07:12:29;101222.66;;;-0.01;100.00
35151;BME280;55720;51.972;4.624;2022-12-10T07:14:54;101229.81;;;0.10;100.00
35151;BME280;55720;51.972;4.624;2022-12-10T07:17:20;101223.66;;;-0.07;100.00
35151;BME280;55720;51.972;4.624;2022-12-10T07:19:45;101230.66;;;-0.11;100.00
35151;BME280;55720;51.972;4.624;2022-12-10T07:22:11;101233.34;;;-0.11;100.00
35151;BME280;55720;51.972;4.624;2022-12-10T07:24:36;101232.34;;;-0.05;100.00
35151;BME280;55720;51.972;4.624;2022-12-10T07:27:07;101225.88;;;-0.04;100.00
35151;BME280;55720;51.972;4.624;2022-12-10T07:29:33;101231.53;;;-0.06;100.00
35151;BME280;55720;51.972;4.624;2022-12-10T07:31:58;101240.94;;;-0.08;100.00
35151;BME280;55720;51.972;4.624;2022-12-10T07:34:24;101240.94;;;-0.08;100.00
35151;BME280;55720;51.972;4.624;2022-12-10T07:36:49;101239.19;;;0.03;100.00
35151;BME280;55720;51.972;4.624;2022-12-10T07:39:15;101237.16;;;-0.07;100.00
35151;BME280;55720;51.972;4.624;2022-12-10T07:41:47;101230.31;;;0.07;100.00
35151;BME280;55720;51.972;4.624;2022-12-10T07:44:13;101235.53;;;-0.08;100.00
35151;BME280;55720;51.972;4.624;2022-12-10T07:46:38;101242.63;;;-0.02;100.00
35151;BME280;55720;51.972;4.624;2022-12-10T07:49:03;101244.81;;;0.01;100.00
35151;BME280;55720;51.972;4.624;2022-12-10T07:51:29;101241.28;;;0.00;100.00
35151;BME280;55720;51.972;4.624;2022-12-10T07:53:55;101239.53;;;0.11;100.00
35151;BME280;55720;51.972;4.624;2022-12-10T07:56:21;101239.69;;;-0.01;100.00
35151;BME280;55720;51.972;4.624;2022-12-10T07:58:47;101251.78;;;-0.03;100.00
35151;BME280;55720;51.972;4.624;2022-12-10T08:01:15;101250.09;;;-0.09;100.00
35151;BME280;55720;51.972;4.624;2022-12-10T08:03:42;101252.09;;;-0.21;100.00
35151;BME280;55720;51.972;4.624;2022-12-10T08:06:10;101256.81;;;-0.12;100.00
35151;BME280;55720;51.972;4.624;2022-12-10T08:08:37;101254.31;;;-0.18;100.00
35151;BME280;55720;51.972;4.624;2022-12-10T08:11:04;101261.53;;;-0.02;100.00
35151;BME280;55720;51.972;4.624;2022-12-10T08:13:30;101262.41;;;-0.18;100.00
35151;BME280;55720;51.972;4.624;2022-12-10T08:16:04;101264.72;;;-0.05;100.00
35151;BME280;55720;51.972;4.624;2022-12-10T08:18:31;101271.94;;;-0.11;100.00
35151;BME280;55720;51.972;4.624;2022-12-10T08:20:56;101275.66;;;-0.17;100.00
35151;BME280;55720;51.972;4.624;2022-12-10T08:23:22;101283.44;;;-0.20;100.00
35151;BME280;55720;51.972;4.624;2022-12-10T08:25:48;101294.84;;;-0.13;100.00
35151;BME280;55720;51.972;4.624;2022-12-10T08:28:13;101280.63;;;-0.09;100.00
35151;BME280;55720;51.972;4.624;2022-12-10T08:30:39;101283.31;;;-0.09;100.00
35151;BME280;55720;51.972;4.624;2022-12-10T08:33:04;101291.97;;;-0.07;100.00
35151;BME280;55720;51.972;4.624;2022-12-10T08:35:29;101301.56;;;-0.16;100.00
35151;BME280;55720;51.972;4.624;2022-12-10T08:37:55;101295.78;;;-0.24;100.00
35151;BME280;55720;51.972;4.624;2022-12-10T08:40:20;101293.50;;;-0.32;100.00
35151;BME280;55720;51.972;4.624;2022-12-10T08:42:45;101291.84;;;-0.17;100.00
35151;BME280;55720;51.972;4.624;2022-12-10T08:45:11;101299.50;;;-0.30;100.00
35151;BME280;55720;51.972;4.624;2022-12-10T08:47:37;101307.22;;;-0.17;100.00
35151;BME280;55720;51.972;4.624;2022-12-10T08:50:02;101296.59;;;-0.24;100.00
35151;BME280;55720;51.972;4.624;2022-12-10T08:52:29;101304.47;;;-0.22;100.00
35151;BME280;55720;51.972;4.624;2022-12-10T08:54:54;101308.34;;;-0.13;100.00
35151;BME280;55720;51.972;4.624;2022-12-10T08:57:20;101306.25;;;-0.28;100.00
35151;BME280;55720;51.972;4.624;2022-12-10T08:59:45;101310.50;;;-0.15;100.00
35151;BME280;55720;51.972;4.624;2022-12-10T09:02:11;101311.53;;;-0.16;100.00
35151;BME280;55720;51.972;4.624;2022-12-10T09:04:37;101316.13;;;-0.17;100.00
35151;BME280;55720;51.972;4.624;2022-12-10T09:07:04;101319.69;;;-0.33;100.00
35151;BME280;55720;51.972;4.624;2022-12-10T09:09:31;101323.53;;;-0.07;100.00
35151;BME280;55720;51.972;4.624;2022-12-10T09:11:57;101319.25;;;-0.25;100.00
35151;BME280;55720;51.972;4.624;2022-12-10T09:14:22;101325.16;;;-0.28;100.00
35151;BME280;55720;51.972;4.624;2022-12-10T09:16:49;101326.81;;;-0.43;100.00
35151;BME280;55720;51.972;4.624;2022-12-10T09:19:14;101330.91;;;-0.58;100.00
35151;BME280;55720;51.972;4.624;2022-12-10T09:21:40;101328.06;;;-0.51;100.00
35151;BME280;55720;51.972;4.624;2022-12-10T09:24:05;101336.84;;;-0.39;100.00
35151;BME280;55720;51.972;4.624;2022-12-10T09:26:31;101305.16;;;-0.48;100.00
35151;BME280;55720;51.972;4.624;2022-12-10T09:28:57;101328.91;;;-0.29;100.00
35151;BME280;55720;51.972;4.624;2022-12-10T09:31:23;101335.06;;;-0.33;100.00
35151;BME280;55720;51.972;4.624;2022-12-10T09:33:51;101336.69;;;-0.32;100.00
35151;BME280;55720;51.972;4.624;2022-12-10T09:36:18;101328.47;;;-0.21;100.00
35151;BME280;55720;51.972;4.624;2022-12-10T09:38:45;101345.84;;;-0.33;100.00
35151;BME280;55720;51.972;4.624;2022-12-10T09:51:28;101364.28;;;-0.25;100.00
35151;BME280;55720;51.972;4.624;2022-12-10T09:53:56;101370.22;;;-0.45;100.00
35151;BME280;55720;51.972;4.624;2022-12-10T09:56:33;101335.84;;;-0.16;100.00
35151;BME280;55720;51.972;4.624;2022-12-10T09:59:03;101360.03;;;-0.21;100.00
35151;BME280;55720;51.972;4.624;2022-12-10T10:01:32;101364.28;;;-0.09;100.00
35151;BME280;55720;51.972;4.624;2022-12-10T10:03:59;101370.91;;;-0.16;100.00
35151;BME280;55720;51.972;4.624;2022-12-10T10:06:26;101372.69;;;-0.43;100.00
35151;BME280;55720;51.972;4.624;2022-12-10T10:08:57;101375.84;;;-0.46;100.00
35151;BME280;55720;51.972;4.624;2022-12-10T10:11:28;101363.41;;;-0.31;100.00
35151;BME280;55720;51.972;4.624;2022-12-10T10:16:39;101367.50;;;-0.28;100.00
35151;BME280;55720;51.972;4.624;2022-12-10T10:19:21;101366.84;;;-0.19;100.00
35151;BME280;55720;51.972;4.624;2022-12-10T10:21:50;101371.56;;;-0.09;100.00
35151;BME280;55720;51.972;4.624;2022-12-10T10:24:20;101374.91;;;-0.02;100.00
35151;BME280;55720;51.972;4.624;2022-12-10T10:26:46;101376.72;;;-0.08;100.00
35151;BME280;55720;51.972;4.624;2022-12-10T10:29:14;101382.81;;;0.05;100.00
35151;BME280;55720;51.972;4.624;2022-12-10T10:31:41;101383.56;;;0.00;100.00
35151;BME280;55720;51.972;4.624;2022-12-10T10:34:19;101385.56;;;-0.12;100.00
35151;BME280;55720;51.972;4.624;2022-12-10T10:36:45;101385.16;;;-0.21;100.00
35151;BME280;55720;51.972;4.624;2022-12-10T10:39:27;101380.22;;;-0.07;100.00
35151;BME280;55720;51.972;4.624;2022-12-10T10:41:54;101393.91;;;-0.47;100.00
35151;BME280;55720;51.972;4.624;2022-12-10T10:44:22;101399.88;;;-0.28;100.00
35151;BME280;55720;51.972;4.624;2022-12-10T10:46:53;101389.06;;;-0.28;100.00
35151;BME280;55720;51.972;4.624;2022-12-10T10:49:30;101387.56;;;-0.03;100.00
35151;BME280;55720;51.972;4.624;2022-12-10T10:52:21;101391.00;;;-0.07;100.00
35151;BME280;55720;51.972;4.624;2022-12-10T10:54:47;101393.88;;;-0.14;100.00
35151;BME280;55720;51.972;4.624;2022-12-10T10:57:28;101382.91;;;-0.07;100.00
35151;BME280;55720;51.972;4.624;2022-12-10T11:00:18;101390.44;;;-0.09;100.00
35151;BME280;55720;51.972;4.624;2022-12-10T11:02:43;101408.84;;;-0.06;100.00
35151;BME280;55720;51.972;4.624;2022-12-10T11:05:21;101399.78;;;0.00;100.00
35151;BME280;55720;51.972;4.624;2022-12-10T11:08:04;101402.88;;;-0.08;100.00
35151;BME280;55720;51.972;4.624;2022-12-10T11:10:32;101411.63;;;-0.01;100.00
35151;BME280;55720;51.972;4.624;2022-12-10T11:13:19;101407.41;;;0.25;100.00
35151;BME280;55720;51.972;4.624;2022-12-10T11:15:45;101412.31;;;0.11;100.00
35151;BME280;55720;51.972;4.624;2022-12-10T11:21:21;101403.84;;;0.03;100.00
35151;BME280;55720;51.972;4.624;2022-12-10T11:23:54;101410.53;;;0.17;100.00
35151;BME280;55720;51.972;4.624;2022-12-10T11:29:28;101419.34;;;0.12;100.00
35151;BME280;55720;51.972;4.624;2022-12-10T11:35:02;101419.72;;;-0.01;100.00
35151;BME280;55720;51.972;4.624;2022-12-10T11:40:23;101420.72;;;0.15;100.00
35151;BME280;55720;51.972;4.624;2022-12-10T11:46:12;101407.44;;;0.30;100.00
35151;BME280;55720;51.972;4.624;2022-12-10T11:51:58;101413.78;;;0.40;100.00
35151;BME280;55720;51.972;4.624;2022-12-10T12:00:23;101421.97;;;0.24;100.00
35151;BME280;55720;51.972;4.624;2022-12-10T12:05:47;101428.69;;;0.21;100.00
35151;BME280;55720;51.972;4.624;2022-12-10T12:16:28;101424.53;;;0.35;100.00
35151;BME280;55720;51.972;4.624;2022-12-10T12:19:01;101410.78;;;0.37;100.00
35151;BME280;55720;51.972;4.624;2022-12-10T12:21:28;101407.22;;;0.31;100.00
35151;BME280;55720;51.972;4.624;2022-12-10T12:24:14;101411.03;;;0.35;100.00
35151;BME280;55720;51.972;4.624;2022-12-10T12:26:51;101404.22;;;0.55;100.00
35151;BME280;55720;51.972;4.624;2022-12-10T12:33:11;101413.56;;;0.42;100.00
35151;BME280;55720;51.972;4.624;2022-12-10T12:35:43;101407.94;;;0.48;100.00
35151;BME280;55720;51.972;4.624;2022-12-10T12:38:30;101407.41;;;0.25;100.00
35151;BME280;55720;51.972;4.624;2022-12-10T12:44:09;101403.56;;;0.42;100.00
35151;BME280;55720;51.972;4.624;2022-12-10T12:46:42;101396.59;;;0.25;100.00
35151;BME280;55720;51.972;4.624;2022-12-10T12:49:21;101395.91;;;0.34;100.00
35151;BME280;55720;51.972;4.624;2022-12-10T12:52:02;101392.19;;;0.40;100.00
35151;BME280;55720;51.972;4.624;2022-12-10T12:54:31;101397.56;;;0.62;100.00
35151;BME280;55720;51.972;4.624;2022-12-10T12:59:59;101398.38;;;0.63;100.00
35151;BME280;55720;51.972;4.624;2022-12-10T13:05:02;101413.03;;;0.67;100.00
35151;BME280;55720;51.972;4.624;2022-12-10T13:07:34;101407.31;;;0.63;100.00
35151;BME280;55720;51.972;4.624;2022-12-10T13:12:45;101405.38;;;0.37;100.00
35151;BME280;55720;51.972;4.624;2022-12-10T13:15:22;101406.69;;;0.34;100.00
35151;BME280;55720;51.972;4.624;2022-12-10T13:23:32;101427.81;;;0.37;100.00
35151;BME280;55720;51.972;4.624;2022-12-10T13:25:59;101419.88;;;0.31;100.00
35151;BME280;55720;51.972;4.624;2022-12-10T13:37:14;101424.09;;;0.43;100.00
35151;BME280;55720;51.972;4.624;2022-12-10T13:45:06;101413.75;;;0.57;100.00
35151;BME280;55720;51.972;4.624;2022-12-10T13:47:41;101419.59;;;0.49;100.00
35151;BME280;55720;51.972;4.624;2022-12-10T13:55:46;101417.69;;;0.71;100.00
35151;BME280;55720;51.972;4.624;2022-12-10T14:01:02;101407.44;;;0.52;100.00
35151;BME280;55720;51.972;4.624;2022-12-10T14:06:36;101411.03;;;0.57;100.00
35151;BME280;55720;51.972;4.624;2022-12-10T14:09:23;101421.06;;;0.62;100.00
35151;BME280;55720;51.972;4.624;2022-12-10T14:12:14;101412.09;;;0.56;100.00
35151;BME280;55720;51.972;4.624;2022-12-10T14:14:43;101412.50;;;0.65;100.00
35151;BME280;55720;51.972;4.624;2022-12-10T14:17:14;101412.81;;;0.46;100.00
35151;BME280;55720;51.972;4.624;2022-12-10T14:19:42;101410.53;;;0.38;100.00
35151;BME280;55720;51.972;4.624;2022-12-10T14:22:08;101411.78;;;0.53;100.00
35151;BME280;55720;51.972;4.624;2022-12-10T14:24:39;101406.16;;;0.54;100.00
35151;BME280;55720;51.972;4.624;2022-12-10T14:27:23;101407.44;;;0.52;100.00
35151;BME280;55720;51.972;4.624;2022-12-10T14:30:02;101398.09;;;0.59;100.00
35151;BME280;55720;51.972;4.624;2022-12-10T14:32:34;101406.78;;;0.61;100.00
35151;BME280;55720;51.972;4.624;2022-12-10T14:35:03;101406.78;;;0.61;100.00
35151;BME280;55720;51.972;4.624;2022-12-10T14:37:31;101407.94;;;0.48;100.00
35151;BME280;55720;51.972;4.624;2022-12-10T14:39:59;101422.47;;;0.64;100.00